Time;durP1;ratioP1;P1;durP2;ratioP2;P2;SDS_P1;SDS_P2;PMS_P1;PMS_P2;Temp;Humidity;BMP_temperature;BMP_pressure;BME280_temperature;BME280_humidity;BME280_pressure;Samples;Min_cycle;Max_cycle;Signal;HPM_P1;HPM_P2
2021/01/13 00:01:31;;;;;;;146.48;111.62;;;19.00;45.30;;;;;;4778149;55;21043;-21
2021/01/13 00:06:33;;;;;;;145.62;111.60;;;19.00;45.30;;;;;;4762742;55;21060;-22
2021/01/13 00:11:36;;;;;;;147.68;110.40;;;19.00;45.30;;;;;;4806609;55;21692;-23
2021/01/13 00:16:37;;;;;;;152.75;115.05;;;19.00;45.20;;;;;;4746346;55;21106;-22
2021/01/13 00:21:38;;;;;;;147.50;108.53;;;19.00;45.10;;;;;;4733311;55;21027;-23
2021/01/13 00:26:39;;;;;;;146.62;108.15;;;19.00;45.20;;;;;;4749346;55;21080;-23
2021/01/13 00:31:40;;;;;;;145.65;110.57;;;18.90;45.00;;;;;;4725092;59;22244;-22
2021/01/13 00:36:41;;;;;;;145.98;109.80;;;18.90;45.20;;;;;;4733133;55;21060;-23
2021/01/13 00:41:42;;;;;;;137.25;104.00;;;19.00;45.00;;;;;;4791598;55;21070;-23
2021/01/13 00:46:45;;;;;;;145.55;108.95;;;18.90;45.10;;;;;;4732701;55;21039;-21
2021/01/13 00:51:46;;;;;;;148.05;108.53;;;19.00;45.10;;;;;;4739161;55;21019;-20
2021/01/13 00:56:48;;;;;;;144.18;108.32;;;18.90;44.90;;;;;;4731035;55;21023;-26
2021/01/13 01:01:48;;;;;;;144.82;108.70;;;18.90;44.80;;;;;;4728828;55;21093;-20
2021/01/13 01:06:50;;;;;;;146.70;107.85;;;18.90;45.00;;;;;;4730629;55;21481;-22
2021/01/13 01:11:50;;;;;;;146.95;107.12;;;18.90;44.70;;;;;;4729675;55;21569;-18
2021/01/13 01:16:51;;;;;;;150.18;112.03;;;18.90;44.70;;;;;;4724894;59;21011;-19
2021/01/13 01:21:52;;;;;;;146.48;109.07;;;18.90;44.70;;;;;;4730820;55;21601;-21
2021/01/13 01:26:53;;;;;;;145.95;109.22;;;18.90;44.50;;;;;;4738790;55;21095;-21
2021/01/13 01:31:54;;;;;;;149.32;109.47;;;18.90;44.60;;;;;;4788026;55;21107;-23
2021/01/13 01:36:55;;;;;;;149.27;108.32;;;18.90;44.50;;;;;;4751625;55;21048;-21
2021/01/13 01:41:56;;;;;;;144.93;106.95;;;18.90;44.50;;;;;;4731977;55;21486;-20
2021/01/13 01:47:04;;;;;;;145.27;107.60;;;18.90;44.40;;;;;;4732183;55;21079;-23
2021/01/13 01:52:15;;;;;;;150.50;107.55;;;18.90;44.40;;;;;;4746064;55;21497;-16
2021/01/13 01:57:21;;;;;;;145.00;106.75;;;18.90;44.30;;;;;;4724739;59;21090;-23
2021/01/13 02:02:35;;;;;;;146.25;107.60;;;18.90;44.30;;;;;;4724677;59;21636;-18
2021/01/13 02:07:39;;;;;;;141.40;106.22;;;18.90;44.20;;;;;;4728475;55;21035;-24
2021/01/13 02:12:51;;;;;;;140.32;105.28;;;18.90;44.30;;;;;;4749725;55;21032;-22
2021/01/13 02:17:55;;;;;;;144.75;107.45;;;18.90;44.30;;;;;;4725292;59;21023;-20
2021/01/13 02:23:02;;;;;;;136.52;102.60;;;18.90;44.30;;;;;;4746014;55;21561;-17
2021/01/13 02:28:22;;;;;;;142.13;104.33;;;18.90;44.30;;;;;;4795264;55;21023;-24
2021/01/13 02:33:50;;;;;;;142.20;102.28;;;18.90;43.90;;;;;;4725000;59;21489;-18
2021/01/13 02:38:53;;;;;;;138.23;102.75;;;18.90;44.20;;;;;;4776882;55;21079;-18
2021/01/13 02:44:00;;;;;;;139.60;102.00;;;18.90;44.10;;;;;;4748519;55;21134;-22
2021/01/13 02:49:02;;;;;;;;;;;18.90;44.10;;;;;;4764198;55;21945;-22
2021/01/13 02:54:56;;;;;;;138.75;101.12;;;18.90;43.90;;;;;;4741519;55;20061;-22
2021/01/13 02:59:57;;;;;;;133.52;99.20;;;18.90;44.00;;;;;;4744590;55;21529;-22
2021/01/13 03:05:00;;;;;;;133.02;96.87;;;18.90;44.00;;;;;;4744114;55;21582;-24
2021/01/13 03:10:15;;;;;;;134.32;99.10;;;18.90;43.90;;;;;;4724878;59;21562;-18
2021/01/13 03:15:18;;;;;;;129.57;97.35;;;18.90;43.90;;;;;;4793534;55;21023;-24
2021/01/13 03:20:39;;;;;;;137.30;99.70;;;18.80;43.80;;;;;;4735411;55;21036;-21
2021/01/13 03:25:59;;;;;;;130.80;96.03;;;18.80;43.80;;;;;;4734075;55;20999;-23
2021/01/13 03:31:01;;;;;;;130.57;95.80;;;18.80;43.80;;;;;;4804658;55;21042;-17
2021/01/13 03:36:09;;;;;;;129.50;94.32;;;18.80;43.70;;;;;;4760219;55;21060;-18
2021/01/13 03:41:13;;;;;;;127.32;93.60;;;18.80;43.70;;;;;;4728194;55;21047;-21
2021/01/13 03:46:14;;;;;;;125.22;90.90;;;18.90;43.80;;;;;;4750565;55;21020;-22
2021/01/13 03:52:08;;;;;;;121.05;90.90;;;18.90;43.70;;;;;;4750593;55;21505;-20
2021/01/13 03:57:09;;;;;;;127.38;92.97;;;18.90;43.50;;;;;;4728552;55;21019;-28
2021/01/13 04:02:23;;;;;;;124.43;90.82;;;18.80;43.60;;;;;;4742056;55;21115;-22
2021/01/13 04:07:32;;;;;;;124.75;89.97;;;18.90;43.60;;;;;;4735029;55;21557;-20
2021/01/13 04:12:43;;;;;;;122.53;89.32;;;18.80;43.70;;;;;;4747202;55;21047;-19
2021/01/13 04:17:46;;;;;;;124.45;90.35;;;18.80;43.60;;;;;;4732722;55;21011;-19
2021/01/13 04:22:48;;;;;;;124.45;89.35;;;18.80;43.50;;;;;;4751143;55;21095;-23
2021/01/13 04:27:50;;;;;;;116.65;85.80;;;18.80;43.40;;;;;;4755297;55;21035;-22
2021/01/13 04:32:55;;;;;;;115.00;84.18;;;18.80;43.40;;;;;;4748983;55;21099;-23
2021/01/13 04:37:57;;;;;;;117.03;86.97;;;18.80;43.40;;;;;;4733257;55;21791;-21
2021/01/13 04:43:12;;;;;;;115.62;86.75;;;18.80;43.30;;;;;;4768367;55;21054;-22
2021/01/13 04:48:20;;;;;;;112.10;82.12;;;18.80;43.30;;;;;;4746388;55;21039;-18
2021/01/13 04:53:22;;;;;;;116.75;84.28;;;18.80;43.40;;;;;;4797716;55;21095;-14
2021/01/13 05:02:16;;;;;;;114.15;83.95;;;18.80;43.30;;;;;;4734522;55;21019;-23
2021/01/13 05:07:33;;;;;;;113.85;83.22;;;18.80;43.40;;;;;;4733363;55;21149;-22
2021/01/13 05:13:03;;;;;;;106.90;79.32;;;18.80;43.20;;;;;;4741997;55;21031;-23
2021/01/13 05:18:14;;;;;;;112.47;81.18;;;18.80;43.40;;;;;;4724766;59;21014;-17
2021/01/13 05:23:17;;;;;;;111.07;80.80;;;18.80;43.30;;;;;;4762366;55;21462;-24
2021/01/13 05:28:28;;;;;;;110.25;79.87;;;18.80;43.30;;;;;;4762842;55;21019;-24
2021/01/13 05:33:31;;;;;;;102.93;75.22;;;18.80;43.40;;;;;;4736767;55;21056;-22
2021/01/13 05:39:07;;;;;;;106.20;79.60;;;18.80;43.30;;;;;;4733874;55;21526;-23
2021/01/13 05:44:09;;;;;;;104.85;79.03;;;18.80;43.30;;;;;;4740688;55;21466;-17
2021/01/13 05:49:11;;;;;;;106.05;78.22;;;18.80;43.10;;;;;;4752171;55;21003;-22
2021/01/13 05:54:15;;;;;;;101.97;76.85;;;18.80;43.20;;;;;;4727019;55;21007;-21
2021/01/13 05:59:17;;;;;;;106.05;77.00;;;18.80;43.20;;;;;;4748532;55;21027;-19
2021/01/13 06:04:18;;;;;;;108.35;79.22;;;18.80;43.10;;;;;;4729367;55;21039;-17
2021/01/13 06:09:22;;;;;;;106.43;79.05;;;18.80;43.10;;;;;;4750226;55;21083;-20
2021/01/13 06:14:28;;;;;;;99.65;74.57;;;18.80;43.10;;;;;;4740774;55;21597;-22
2021/01/13 06:19:31;;;;;;;98.72;72.95;;;18.80;43.00;;;;;;4733783;55;21068;-22
2021/01/13 06:24:37;;;;;;;103.90;75.68;;;18.80;43.10;;;;;;4729366;55;20996;-23
2021/01/13 06:30:00;;;;;;;99.10;74.28;;;18.80;43.20;;;;;;4724792;59;21126;-19
2021/01/13 06:35:37;;;;;;;100.55;74.87;;;18.80;43.20;;;;;;4786064;55;21042;-16
2021/01/13 06:40:38;;;;;;;97.40;72.93;;;18.80;43.20;;;;;;4757950;55;21482;-23
2021/01/13 06:45:40;;;;;;;98.70;71.80;;;18.80;43.40;;;;;;4724564;59;21015;-21
2021/01/13 06:50:41;;;;;;;97.88;73.10;;;18.80;43.20;;;;;;4724001;59;21103;-23
2021/01/13 06:55:42;;;;;;;98.20;72.40;;;18.70;43.40;;;;;;4727121;55;21583;-22
2021/01/13 07:00:45;;;;;;;97.35;70.72;;;18.80;43.50;;;;;;4732087;55;21609;-24
2021/01/13 07:05:45;;;;;;;99.40;72.60;;;18.80;43.40;;;;;;4777089;55;21019;-22
2021/01/13 07:10:46;;;;;;;100.38;74.43;;;18.80;43.40;;;;;;4727652;55;21064;-25
2021/01/13 07:15:49;;;;;;;96.87;71.50;;;18.80;43.40;;;;;;4734191;55;21075;-21
2021/01/13 07:20:50;;;;;;;94.97;71.00;;;18.80;43.30;;;;;;4725118;59;21063;-25
2021/01/13 07:25:54;;;;;;;92.95;68.30;;;18.80;43.40;;;;;;4726883;55;21545;-21
2021/01/13 07:30:56;;;;;;;93.43;69.78;;;18.80;43.30;;;;;;4777365;55;21031;-19
2021/01/13 07:36:00;;;;;;;102.10;73.78;;;18.80;43.40;;;;;;4752679;55;21099;-18
2021/01/13 07:41:06;;;;;;;96.47;71.95;;;18.70;43.10;;;;;;4725185;59;21048;-22
2021/01/13 07:46:16;;;;;;;93.95;68.97;;;18.80;43.10;;;;;;4759786;55;21529;-22
2021/01/13 07:51:19;;;;;;;98.57;72.30;;;18.80;43.30;;;;;;4724075;59;21083;-22
2021/01/13 07:56:28;;;;;;;99.35;72.60;;;18.80;43.20;;;;;;4750725;55;21525;-23
2021/01/13 08:04:41;;;;;;;98.53;73.05;;;18.80;43.30;;;;;;4754276;55;21099;-21
2021/01/13 08:09:50;;;;;;;107.65;76.62;;;18.80;41.50;;;;;;4729849;55;21106;-17
2021/01/13 08:16:58;;;;;;;104.35;73.43;;;18.80;43.30;;;;;;4742096;55;21055;-22
2021/01/13 08:22:04;;;;;;;101.50;75.35;;;18.90;43.70;;;;;;4738781;55;21609;-21
2021/01/13 08:28:40;;;;;;;111.25;79.97;;;19.00;43.60;;;;;;4758561;54;28536;-24
2021/01/13 08:33:41;;;;;;;111.95;79.20;;;19.00;44.50;;;;;;4750658;54;21370;-19
2021/01/13 08:39:17;;;;;;;112.25;79.60;;;19.10;45.00;;;;;;4742609;58;21026;-21
2021/01/13 08:44:19;;;;;;;112.37;82.03;;;19.20;45.20;;;;;;4747235;55;21010;-20
2021/01/13 08:49:28;;;;;;;117.82;82.60;;;19.20;45.50;;;;;;4760666;55;21037;-19
2021/01/13 08:54:30;;;;;;;114.97;80.25;;;19.30;46.00;;;;;;4742917;55;20997;-23
2021/01/13 08:59:45;;;;;;;125.03;87.93;;;19.30;46.10;;;;;;4756757;55;21038;-17
2021/01/13 09:04:51;;;;;;;123.40;88.07;;;19.40;46.40;;;;;;4754012;55;21114;-20
2021/01/13 09:10:07;;;;;;;125.43;88.35;;;19.40;46.60;;;;;;4753803;55;21025;-21
2021/01/13 09:15:25;;;;;;;132.37;93.28;;;19.40;46.70;;;;;;4747795;55;20987;-18
2021/01/13 09:20:27;;;;;;;;;;;19.50;47.00;;;;;;4750747;55;21045;-21
2021/01/13 09:25:33;;;;;;;129.15;90.93;;;19.50;47.90;;;;;;4754961;55;20136;-22
2021/01/13 09:30:38;;;;;;;142.50;99.62;;;19.60;47.40;;;;;;4772306;55;20986;-21
2021/01/13 09:35:41;;;;;;;144.40;95.50;;;19.60;47.60;;;;;;4739326;58;21014;-20
2021/01/13 09:40:57;;;;;;;149.38;103.32;;;19.60;48.00;;;;;;4751221;55;21014;-18
2021/01/13 09:46:01;;;;;;;157.98;108.00;;;19.60;48.00;;;;;;4817991;55;21491;-21
2021/01/13 09:51:10;;;;;;;159.60;107.97;;;19.60;48.00;;;;;;4773410;55;21081;-23
2021/01/13 09:56:11;;;;;;;166.60;113.35;;;19.70;48.10;;;;;;4752681;55;21525;-17
2021/01/13 10:01:26;;;;;;;172.48;119.85;;;19.70;48.20;;;;;;4760291;55;21053;-19
2021/01/13 10:06:31;;;;;;;184.15;118.20;;;19.70;49.00;;;;;;4781721;55;21007;-21
2021/01/13 10:11:33;;;;;;;175.32;119.15;;;19.70;48.60;;;;;;4763213;55;21053;-21
2021/01/13 10:16:41;;;;;;;178.25;120.00;;;19.70;48.60;;;;;;4782852;55;21050;-21
2021/01/13 10:21:44;;;;;;;185.85;124.50;;;19.80;48.80;;;;;;4745748;55;21475;-21
2021/01/13 10:26:49;;;;;;;205.23;132.93;;;19.80;48.80;;;;;;4737076;59;21141;-24
2021/01/13 10:31:52;;;;;;;199.87;130.15;;;19.90;49.00;;;;;;4782704;55;21119;-17
2021/01/13 10:36:54;;;;;;;214.68;140.45;;;19.80;49.10;;;;;;4811885;55;21021;-24
2021/01/13 10:42:07;;;;;;;220.07;142.73;;;19.90;49.80;;;;;;4757461;55;21041;-23
2021/01/13 10:47:12;;;;;;;218.30;144.43;;;19.80;49.10;;;;;;4739427;55;21045;-24
2021/01/13 10:52:19;;;;;;;245.00;157.75;;;19.80;49.70;;;;;;4741823;55;21529;-20
2021/01/13 10:57:31;;;;;;;245.12;156.40;;;19.70;48.90;;;;;;4743730;55;21065;-21
2021/01/13 11:02:32;;;;;;;243.10;150.35;;;19.70;49.10;;;;;;4736887;59;21588;-22
2021/01/13 11:07:37;;;;;;;238.32;152.80;;;19.70;49.40;;;;;;4749922;55;21041;-22
2021/01/13 11:12:39;;;;;;;248.25;160.23;;;19.80;49.30;;;;;;4750663;55;21046;-20
2021/01/13 11:17:40;;;;;;;255.15;160.68;;;19.80;49.40;;;;;;4747615;55;21046;-21
2021/01/13 11:22:45;;;;;;;258.17;166.52;;;19.70;49.50;;;;;;4801965;55;21559;-23
2021/01/13 11:28:10;;;;;;;265.10;168.55;;;19.80;49.70;;;;;;4746000;55;21500;-20
2021/01/13 11:33:13;;;;;;;274.15;183.48;;;19.80;49.90;;;;;;4753569;55;22268;-21
2021/01/13 11:39:15;;;;;;;269.17;176.27;;;19.80;50.00;;;;;;4757193;55;21530;-19
2021/01/13 11:44:50;;;;;;;266.95;175.98;;;19.80;50.10;;;;;;4762014;55;21002;-22
2021/01/13 11:49:56;;;;;;;270.98;179.73;;;19.80;50.30;;;;;;4761900;55;21066;-22
2021/01/13 11:54:57;;;;;;;274.08;174.18;;;19.90;50.40;;;;;;4737482;59;21472;-20
2021/01/13 12:00:23;;;;;;;267.83;178.65;;;19.90;50.60;;;;;;4743626;55;21018;-20
2021/01/13 12:05:45;;;;;;;268.08;176.87;;;19.90;50.60;;;;;;4779836;55;22260;-22
2021/01/13 12:10:55;;;;;;;271.48;174.87;;;19.90;50.70;;;;;;4737702;55;21061;-24
2021/01/13 12:16:01;;;;;;;285.55;194.90;;;19.90;50.90;;;;;;4778057;55;21453;-21
2021/01/13 12:21:35;;;;;;;294.85;201.60;;;19.90;50.90;;;;;;4750738;55;21319;-25
2021/01/13 12:26:38;;;;;;;279.55;193.07;;;19.90;50.50;;;;;;4759908;55;21674;-20
2021/01/13 12:31:41;;;;;;;284.83;191.12;;;19.80;50.50;;;;;;4788323;55;21548;-20
2021/01/13 12:36:45;;;;;;;292.48;201.12;;;19.80;50.40;;;;;;4745351;55;21054;-20
2021/01/13 12:41:50;;;;;;;283.70;197.10;;;19.70;50.20;;;;;;4754687;55;21033;-21
2021/01/13 12:46:57;;;;;;;289.67;196.80;;;19.70;50.10;;;;;;4748914;55;21571;-18
2021/01/13 12:51:59;;;;;;;281.55;198.00;;;19.70;50.00;;;;;;4776300;55;20982;-20
2021/01/13 12:57:00;;;;;;;288.65;201.40;;;19.60;50.00;;;;;;4780432;55;21018;-21
2021/01/13 13:02:01;;;;;;;290.05;203.77;;;19.60;49.80;;;;;;4738346;55;21540;-21
2021/01/13 13:07:02;;;;;;;285.95;193.10;;;19.60;49.70;;;;;;4781814;55;21030;-21
2021/01/13 13:12:03;;;;;;;294.25;196.77;;;19.60;49.40;;;;;;4738203;59;21014;-18
2021/01/13 13:17:04;;;;;;;289.30;195.87;;;19.70;49.50;;;;;;4748259;55;21030;-22
2021/01/13 13:22:05;;;;;;;284.20;190.85;;;19.70;49.60;;;;;;4774082;55;21472;-19
2021/01/13 13:27:08;;;;;;;295.17;212.07;;;19.80;49.80;;;;;;4735741;59;21018;-20
2021/01/13 13:32:09;;;;;;;283.23;192.25;;;19.80;49.90;;;;;;4748562;55;21612;-22
2021/01/13 13:37:10;;;;;;;283.85;193.20;;;19.80;50.10;;;;;;4735803;59;21085;-19
2021/01/13 13:42:12;;;;;;;304.30;206.30;;;19.90;50.20;;;;;;4744226;55;21078;-23
2021/01/13 14:05:26;;;;;;;285.42;198.85;;;20.00;50.90;;;;;;4738477;55;21548;-20
2021/01/13 14:10:27;;;;;;;280.52;195.45;;;19.90;51.10;;;;;;4623514;55;21598;-22
2021/01/13 14:15:29;;;;;;;292.70;206.50;;;20.00;51.20;;;;;;4547049;57;21090;-22
2021/01/13 14:20:31;;;;;;;285.13;198.68;;;20.00;51.50;;;;;;4537670;57;21090;-20
2021/01/13 14:25:32;;;;;;;279.17;194.23;;;20.00;51.60;;;;;;4572713;57;21574;-22
2021/01/13 14:30:32;;;;;;;276.67;191.85;;;20.00;51.80;;;;;;4539181;57;21089;-22
2021/01/13 14:35:33;;;;;;;274.10;196.80;;;20.10;52.00;;;;;;4531286;61;21515;-22
2021/01/13 14:40:34;;;;;;;285.17;202.27;;;20.00;52.10;;;;;;4544016;57;21072;-23
2021/01/13 14:45:35;;;;;;;272.55;190.55;;;20.00;52.20;;;;;;4531817;61;21590;-23
2021/01/13 14:50:36;;;;;;;276.83;193.60;;;20.00;52.30;;;;;;4537988;57;21097;-21
2021/01/13 14:55:39;;;;;;;271.30;191.50;;;20.00;52.50;;;;;;4560217;57;21045;-20
2021/01/13 15:00:41;;;;;;;269.48;191.35;;;20.10;52.60;;;;;;4531494;61;21080;-19
2021/01/13 15:05:43;;;;;;;269.92;184.32;;;20.10;52.70;;;;;;4553884;57;21065;-26
2021/01/13 15:10:44;;;;;;;254.13;177.27;;;20.10;52.80;;;;;;4602717;57;22018;-22
2021/01/13 15:15:45;;;;;;;258.95;182.05;;;20.10;52.90;;;;;;4596849;56;21058;-20
2021/01/13 15:20:46;;;;;;;266.30;188.23;;;20.20;53.10;;;;;;4621220;57;21130;-19
2021/01/13 15:25:47;;;;;;;270.50;190.93;;;20.10;52.50;;;;;;4584706;57;21074;-24
2021/01/13 15:30:48;;;;;;;260.83;184.35;;;20.10;52.80;;;;;;4616752;56;21417;-23
2021/01/13 15:35:49;;;;;;;274.92;197.82;;;20.10;52.60;;;;;;4611471;56;21825;-20
2021/01/13 15:40:50;;;;;;;262.02;186.35;;;20.10;52.50;;;;;;4622209;57;21603;-27
2021/01/13 15:45:51;;;;;;;255.05;181.85;;;20.00;52.30;;;;;;4594753;56;21107;-23
2021/01/13 15:50:53;;;;;;;258.63;184.48;;;20.00;52.30;;;;;;4584896;56;21055;-19
2021/01/13 15:55:54;;;;;;;264.52;185.15;;;20.00;52.30;;;;;;4599529;56;21050;-24
2021/01/13 16:00:56;;;;;;;261.27;188.68;;;19.90;52.20;;;;;;4595290;57;21054;-24
2021/01/13 16:05:57;;;;;;;259.10;186.98;;;20.00;52.20;;;;;;4615955;56;21713;-26
2021/01/13 16:10:58;;;;;;;265.17;192.15;;;19.90;52.20;;;;;;4616756;56;21043;-25
2021/01/13 16:15:59;;;;;;;257.12;185.70;;;19.80;51.90;;;;;;4581493;61;21559;-25
2021/01/13 16:21:01;;;;;;;259.40;190.52;;;19.70;51.90;;;;;;4592996;56;21592;-26
2021/01/13 16:26:03;;;;;;;266.98;191.43;;;19.70;51.80;;;;;;4595079;57;21042;-24
2021/01/13 16:31:08;;;;;;;259.27;186.43;;;19.70;51.60;;;;;;4614868;57;21001;-24
2021/01/13 16:36:14;;;;;;;260.80;191.95;;;19.60;51.50;;;;;;4588645;57;21068;-24
2021/01/13 16:41:15;;;;;;;273.35;202.20;;;19.60;51.30;;;;;;4599793;57;21126;-20
2021/01/13 16:46:16;;;;;;;269.25;199.07;;;19.50;51.30;;;;;;4592122;56;21094;-20
2021/01/13 16:51:17;;;;;;;270.67;199.20;;;19.50;51.10;;;;;;4592804;56;21082;-26
2021/01/13 16:56:19;;;;;;;261.12;192.13;;;19.40;51.10;;;;;;4582894;56;21027;-17
2021/01/13 17:01:21;;;;;;;283.38;208.68;;;19.50;50.90;;;;;;4581896;61;21532;-24
2021/01/13 17:06:25;;;;;;;280.77;207.87;;;19.40;50.80;;;;;;4613058;57;21200;-21
2021/01/13 17:11:32;;;;;;;284.23;211.35;;;19.40;50.90;;;;;;4598902;57;22590;-24
2021/01/13 17:16:34;;;;;;;273.75;207.18;;;19.40;50.40;;;;;;4585232;57;21015;-25
2021/01/13 17:21:36;;;;;;;281.48;209.98;;;19.40;50.60;;;;;;4598973;57;21579;-27
2021/01/13 17:26:40;;;;;;;286.40;216.15;;;19.30;50.20;;;;;;4602706;56;21504;-25
2021/01/13 17:31:41;;;;;;;280.20;211.23;;;19.40;50.30;;;;;;4590359;57;21532;-21
2021/01/13 17:36:42;;;;;;;289.42;214.73;;;19.30;50.20;;;;;;4601839;56;21018;-24
2021/01/13 17:41:47;;;;;;;283.20;210.10;;;19.30;50.20;;;;;;4583675;57;21140;-22
2021/01/13 17:46:58;;;;;;;281.02;216.40;;;19.30;49.80;;;;;;4581443;61;22209;-25
2021/01/13 17:52:00;;;;;;;284.37;214.30;;;19.30;50.00;;;;;;4581575;61;21564;-24
2021/01/13 17:57:01;;;;;;;292.05;220.60;;;19.30;49.80;;;;;;4581115;61;21042;-17
2021/01/13 18:02:09;;;;;;;285.48;214.00;;;19.30;49.90;;;;;;4581317;61;21023;-25
2021/01/13 18:07:12;;;;;;;288.08;218.70;;;19.30;49.90;;;;;;4580464;61;21145;-25
2021/01/13 18:12:12;;;;;;;287.27;220.30;;;19.30;49.60;;;;;;4616613;56;21556;-23
2021/01/13 18:17:16;;;;;;;289.58;219.70;;;19.20;49.40;;;;;;4613595;56;21066;-23
2021/01/13 18:22:21;;;;;;;285.08;212.07;;;19.20;49.50;;;;;;4593302;57;21619;-27
2021/01/13 18:27:23;;;;;;;289.38;216.48;;;19.20;49.30;;;;;;4581173;61;21039;-26
2021/01/13 18:32:24;;;;;;;281.35;213.45;;;19.20;49.40;;;;;;4602707;57;20994;-22
2021/01/13 18:37:25;;;;;;;276.12;212.35;;;19.20;49.10;;;;;;4594270;56;21580;-25
2021/01/13 18:42:26;;;;;;;286.45;217.70;;;19.20;49.30;;;;;;4582405;57;21117;-18
2021/01/13 18:47:27;;;;;;;282.20;215.68;;;19.20;49.30;;;;;;4580889;57;21018;-25
2021/01/13 18:52:28;;;;;;;279.85;214.52;;;19.20;48.80;;;;;;4581401;61;21035;-24
2021/01/13 18:57:31;;;;;;;292.33;224.90;;;19.20;48.70;;;;;;4587436;57;21090;-24
2021/01/13 19:02:32;;;;;;;294.80;230.00;;;19.20;48.80;;;;;;4599624;57;21066;-25
2021/01/13 19:07:33;;;;;;;281.30;214.55;;;19.20;48.90;;;;;;4611115;57;21617;-25
2021/01/13 19:12:35;;;;;;;286.20;220.98;;;19.20;48.70;;;;;;4591635;57;21067;-25
2021/01/13 19:17:39;;;;;;;284.87;216.57;;;19.20;48.70;;;;;;4580913;61;21524;-26
2021/01/13 19:22:41;;;;;;;284.20;222.52;;;19.20;48.80;;;;;;4581410;61;21217;-20
2021/01/13 19:27:44;;;;;;;282.25;215.50;;;19.20;48.60;;;;;;4649551;56;21039;-23
2021/01/13 19:32:47;;;;;;;288.48;225.70;;;19.20;48.50;;;;;;4590055;57;21532;-24
2021/01/13 19:37:50;;;;;;;288.02;219.82;;;19.10;48.30;;;;;;4581583;61;21066;-24
2021/01/13 19:42:53;;;;;;;294.35;224.50;;;19.10;48.40;;;;;;4593354;57;21027;-25
2021/01/13 19:47:59;;;;;;;283.27;221.23;;;19.10;48.20;;;;;;4588385;57;21122;-18
2021/01/13 19:53:05;;;;;;;298.23;230.25;;;19.10;48.20;;;;;;4581872;57;21110;-25
2021/01/13 19:58:06;;;;;;;305.33;233.95;;;19.10;48.20;;;;;;4598149;57;21505;-21
2021/01/13 20:03:07;;;;;;;286.52;224.77;;;19.10;48.10;;;;;;4589100;57;21035;-23
2021/01/13 20:08:08;;;;;;;300.30;232.93;;;19.10;47.90;;;;;;4604579;57;21087;-25
2021/01/13 20:13:09;;;;;;;282.65;222.98;;;19.10;48.00;;;;;;4581105;61;21031;-24
2021/01/13 20:18:12;;;;;;;281.10;218.88;;;19.10;47.90;;;;;;4600223;56;21060;-22
2021/01/13 20:23:13;;;;;;;291.00;227.15;;;19.10;47.80;;;;;;4582112;61;22285;-24
2021/01/13 20:28:14;;;;;;;289.25;231.63;;;19.10;47.70;;;;;;4580867;56;21181;-23
2021/01/13 20:33:15;;;;;;;284.52;222.15;;;19.10;47.60;;;;;;4661965;56;22720;-21
2021/01/13 20:38:15;;;;;;;297.85;228.82;;;19.10;47.60;;;;;;4583787;57;21162;-22
2021/01/13 20:43:16;;;;;;;287.70;223.80;;;19.10;47.50;;;;;;4596800;57;22312;-23
2021/01/13 20:48:17;;;;;;;291.80;230.52;;;19.10;47.40;;;;;;4587289;57;21023;-22
2021/01/13 20:53:20;;;;;;;285.30;226.10;;;19.10;47.40;;;;;;4599348;57;21110;-23
2021/01/13 20:58:20;;;;;;;282.90;221.75;;;19.10;47.50;;;;;;4621874;57;22427;-23
2021/01/13 21:03:21;;;;;;;284.23;222.07;;;19.10;47.30;;;;;;4602937;56;21126;-20
2021/01/13 21:08:25;;;;;;;297.25;231.80;;;19.10;47.20;;;;;;4598110;57;22267;-19
2021/01/13 21:13:26;;;;;;;282.95;222.73;;;19.00;47.10;;;;;;4594417;56;21556;-25
2021/01/13 21:18:27;;;;;;;279.70;218.73;;;19.00;47.10;;;;;;4588581;56;21555;-22
2021/01/13 21:23:28;;;;;;;287.88;228.45;;;19.00;47.00;;;;;;4582047;57;21078;-21
2021/01/13 21:28:28;;;;;;;290.05;228.90;;;19.00;47.00;;;;;;4618264;57;21047;-24
2021/01/13 21:33:29;;;;;;;279.60;217.27;;;19.00;47.00;;;;;;4581505;61;21519;-24
2021/01/13 21:38:30;;;;;;;292.33;227.38;;;19.00;46.80;;;;;;4582277;61;21130;-24
2021/01/13 21:43:31;;;;;;;286.17;224.15;;;19.00;46.80;;;;;;4614421;57;21066;-24
2021/01/13 21:48:32;;;;;;;286.35;222.77;;;19.00;46.80;;;;;;4619763;56;21632;-19
2021/01/13 21:53:33;;;;;;;286.70;224.20;;;19.00;46.50;;;;;;4587961;57;21126;-24
2021/01/13 21:58:33;;;;;;;278.90;216.73;;;19.00;46.60;;;;;;4594260;56;21050;-23
2021/01/13 22:03:36;;;;;;;284.65;222.88;;;19.00;46.50;;;;;;4591065;57;21997;-20
2021/01/13 22:08:38;;;;;;;285.38;218.12;;;19.00;46.30;;;;;;4603430;56;21146;-23
2021/01/13 22:13:40;;;;;;;280.35;218.93;;;19.00;46.30;;;;;;4616623;57;21050;-19
2021/01/13 22:18:44;;;;;;;263.65;205.73;;;19.00;46.20;;;;;;4604927;56;21359;-25
2021/01/13 22:23:46;;;;;;;284.17;220.93;;;19.00;46.20;;;;;;4616186;56;21011;-24
2021/01/13 22:28:48;;;;;;;284.33;225.55;;;19.00;46.00;;;;;;4587320;57;21047;-25
2021/01/13 22:33:50;;;;;;;279.38;220.37;;;19.00;45.80;;;;;;4586851;57;21030;-23
2021/01/13 22:38:52;;;;;;;276.30;214.40;;;19.00;45.90;;;;;;4598857;57;21075;-25
2021/01/13 22:43:53;;;;;;;273.00;217.90;;;19.00;45.80;;;;;;4581458;61;21563;-24
2021/01/13 22:48:54;;;;;;;278.30;219.55;;;19.00;45.60;;;;;;4605889;56;21014;-23
2021/01/13 22:53:55;;;;;;;274.83;212.60;;;19.00;45.60;;;;;;4587338;57;21568;-18
2021/01/13 22:58:56;;;;;;;268.02;213.55;;;19.00;45.60;;;;;;4581471;61;21481;-26
2021/01/13 23:03:57;;;;;;;270.15;211.80;;;19.00;45.50;;;;;;4591233;57;21030;-23
2021/01/13 23:08:58;;;;;;;275.30;211.77;;;19.00;45.40;;;;;;4607544;57;21099;-22
2021/01/13 23:13:59;;;;;;;270.40;210.02;;;19.00;45.20;;;;;;4587605;57;21488;-23
2021/01/13 23:19:00;;;;;;;272.98;214.32;;;19.00;45.20;;;;;;4583726;56;21043;-25
2021/01/13 23:24:01;;;;;;;265.77;212.60;;;19.00;45.20;;;;;;4581798;57;21022;-23
2021/01/13 23:29:02;;;;;;;272.83;208.82;;;18.90;45.10;;;;;;4602186;56;21598;-23
2021/01/13 23:34:03;;;;;;;265.40;204.50;;;18.90;45.10;;;;;;4581392;61;21090;-25
2021/01/13 23:39:05;;;;;;;266.05;204.10;;;18.90;45.10;;;;;;4634192;56;21564;-19
2021/01/13 23:44:06;;;;;;;267.55;202.95;;;19.00;44.80;;;;;;4607972;56;21078;-25
2021/01/13 23:49:07;;;;;;;265.02;202.55;;;18.90;44.80;;;;;;4581895;61;21468;-20
2021/01/13 23:54:08;;;;;;;262.50;199.00;;;18.90;44.70;;;;;;4581358;61;21015;-20
2021/01/13 23:59:09;;;;;;;265.75;202.65;;;18.90;44.60;;;;;;4581548;61;21082;-24
